Time;durP1;ratioP1;P1;durP2;ratioP2;P2;SDS_P1;SDS_P2;PMS_P1;PMS_P2;Temp;Humidity;BMP_temperature;BMP_pressure;BME280_temperature;BME280_humidity;BME280_pressure;Samples;Min_cycle;Max_cycle;Signal;HPM_P1;HPM_P2
2022/06/04 00:00:05;;;;;;;3.13;2.90;;;18.60;99.90;;;;;;5036446;28;20193;-86
2022/06/04 00:02:32;;;;;;;6.63;3.50;;;18.60;99.90;;;;;;5036496;28;20219;-86
2022/06/04 00:05:00;;;;;;;4.80;2.90;;;18.50;99.90;;;;;;5036256;28;20218;-86
2022/06/04 00:07:28;;;;;;;3.00;2.70;;;18.40;99.90;;;;;;5036146;28;20192;-87
2022/06/04 00:15:32;;;;;;;2.83;2.63;;;18.40;99.90;;;;;;5036178;28;20195;-87
2022/06/04 00:18:01;;;;;;;2.93;2.73;;;18.40;99.90;;;;;;5036287;28;20206;-86
2022/06/04 00:20:29;;;;;;;2.87;2.60;;;18.40;99.90;;;;;;5036023;28;20198;-87
2022/06/04 00:23:01;;;;;;;3.97;2.83;;;18.40;99.90;;;;;;5036054;28;20238;-87
2022/06/04 00:25:31;;;;;;;3.40;2.60;;;18.30;99.90;;;;;;5035988;28;20201;-86
2022/06/04 00:28:01;;;;;;;3.83;2.40;;;18.20;99.90;;;;;;5036142;28;20639;-85
2022/06/04 00:30:28;;;;;;;3.33;3.03;;;18.30;99.90;;;;;;5036215;28;20215;-87
2022/06/04 00:32:55;;;;;;;2.77;2.60;;;18.30;99.90;;;;;;5018092;28;20210;-88
2022/06/04 00:35:25;;;;;;;2.87;2.67;;;18.20;99.90;;;;;;5035975;28;20227;-88
2022/06/04 00:37:52;;;;;;;2.70;2.50;;;18.30;99.90;;;;;;5035647;28;20194;-86
2022/06/04 00:40:30;;;;;;;3.97;2.43;;;18.30;99.90;;;;;;5036121;28;20221;-85
2022/06/04 00:42:57;;;;;;;3.00;2.33;;;18.30;99.90;;;;;;5035840;28;20225;-86
2022/06/04 00:46:10;;;;;;;3.33;2.83;;;18.30;99.90;;;;;;5035202;28;20203;-88
2022/06/04 00:48:38;;;;;;;2.83;2.57;;;18.30;99.90;;;;;;5035904;28;20214;-86
2022/06/04 00:51:07;;;;;;;6.63;2.73;;;18.30;99.90;;;;;;5036036;28;20206;-88
2022/06/04 00:53:37;;;;;;;4.33;2.60;;;18.30;99.90;;;;;;5035511;28;20188;-86
2022/06/04 00:56:13;;;;;;;4.97;3.33;;;18.10;99.90;;;;;;5035651;28;20634;-87
2022/06/04 00:59:04;;;;;;;5.03;2.80;;;18.20;99.90;;;;;;5035519;28;20198;-88
2022/06/04 01:01:47;;;;;;;2.70;2.50;;;18.10;99.90;;;;;;5035615;28;20187;-87
2022/06/04 01:07:10;;;;;;;2.97;2.77;;;18.10;99.90;;;;;;5034019;28;20215;-84
2022/06/04 01:10:00;;;;;;;8.90;3.63;;;18.10;99.90;;;;;;5034888;28;20210;-86
2022/06/04 01:12:50;;;;;;;10.23;4.30;;;18.00;99.90;;;;;;5034843;28;20213;-87
2022/06/04 01:15:27;;;;;;;10.93;4.30;;;18.10;99.90;;;;;;5034908;28;20208;-87
2022/06/04 01:18:04;;;;;;;4.57;3.60;;;18.00;99.90;;;;;;5034059;28;20203;-84
2022/06/04 01:20:41;;;;;;;7.10;4.10;;;18.10;99.90;;;;;;5021037;28;20216;-84
2022/06/04 01:23:40;;;;;;;6.00;3.87;;;18.10;99.90;;;;;;5014412;28;20231;-88
2022/06/04 01:26:41;;;;;;;6.40;3.53;;;18.10;99.90;;;;;;5014912;28;20208;-87
2022/06/04 01:29:13;;;;;;;6.37;3.00;;;18.10;99.90;;;;;;5014768;28;20206;-87
2022/06/04 01:31:50;;;;;;;4.47;2.30;;;18.00;99.90;;;;;;5015448;28;20287;-86
2022/06/04 01:34:25;;;;;;;4.23;2.30;;;18.00;99.90;;;;;;5014999;28;20212;-85
2022/06/04 01:36:59;;;;;;;3.87;2.07;;;17.90;99.90;;;;;;5015229;28;20192;-86
2022/06/04 01:41:03;;;;;;;5.33;2.17;;;17.90;99.90;;;;;;5015167;28;20210;-86
2022/06/04 01:42:27;;;;;;;3.83;2.10;;;17.90;99.90;;;;;;5014721;28;20192;-86
2022/06/04 01:44:56;;;;;;;2.40;2.10;;;17.80;99.90;;;;;;5014948;28;20203;-86
2022/06/04 01:47:24;;;;;;;3.27;2.23;;;17.90;99.90;;;;;;5014750;28;20191;-88
2022/06/04 01:49:54;;;;;;;4.67;2.20;;;17.90;99.90;;;;;;5014915;28;20203;-86
2022/06/04 01:52:29;;;;;;;7.27;3.23;;;18.00;99.90;;;;;;5014361;28;20202;-85
2022/06/04 01:55:00;;;;;;;7.10;3.97;;;17.80;99.90;;;;;;5014225;28;20195;-85
2022/06/04 01:57:40;;;;;;;7.67;4.00;;;17.80;99.90;;;;;;5014197;28;20199;-86
2022/06/04 02:00:12;;;;;;;16.30;4.23;;;17.80;99.90;;;;;;5014972;28;20195;-85
2022/06/04 02:02:46;;;;;;;12.87;4.57;;;17.80;99.90;;;;;;5014597;28;20219;-85
2022/06/04 02:05:18;;;;;;;10.37;3.87;;;17.70;99.90;;;;;;5014622;28;20195;-87
2022/06/04 02:07:49;;;;;;;5.13;2.90;;;17.60;99.90;;;;;;5014307;28;20202;-86
2022/06/04 02:10:27;;;;;;;5.13;2.33;;;17.60;99.90;;;;;;5014699;28;20523;-86
2022/06/04 02:13:00;;;;;;;8.10;2.70;;;17.60;99.90;;;;;;5014726;28;20225;-87
2022/06/04 02:15:33;;;;;;;3.13;2.50;;;17.50;99.90;;;;;;5014334;28;20214;-86
2022/06/04 02:18:03;;;;;;;3.83;2.87;;;17.60;99.90;;;;;;5014245;28;20213;-84
2022/06/04 02:20:31;;;;;;;6.47;3.20;;;17.50;99.90;;;;;;5014318;28;20199;-86
2022/06/04 02:23:01;;;;;;;8.83;3.43;;;17.50;99.90;;;;;;5014122;28;20230;-86
2022/06/04 02:25:30;;;;;;;6.93;3.30;;;17.50;99.90;;;;;;5013927;28;20668;-85
2022/06/04 02:28:00;;;;;;;7.97;3.10;;;17.50;99.90;;;;;;5014250;28;20206;-86
2022/06/04 02:30:37;;;;;;;3.50;2.30;;;17.40;99.90;;;;;;5014247;28;20221;-86
2022/06/04 02:33:16;;;;;;;4.07;3.07;;;17.30;99.90;;;;;;5014380;28;20642;-86
2022/06/04 02:35:57;;;;;;;8.27;4.07;;;17.40;99.90;;;;;;5013900;28;20222;-86
2022/06/04 02:38:36;;;;;;;13.70;5.10;;;17.30;99.90;;;;;;5013712;28;20444;-85
2022/06/04 02:41:11;;;;;;;10.33;4.10;;;17.30;99.90;;;;;;5014037;28;20199;-83
2022/06/04 02:43:44;;;;;;;19.57;5.47;;;17.40;99.90;;;;;;5013593;28;20229;-85
2022/06/04 02:46:19;;;;;;;11.83;4.43;;;17.40;99.90;;;;;;5013790;28;20198;-85
2022/06/04 02:48:51;;;;;;;8.63;4.23;;;17.30;99.90;;;;;;5014187;28;20204;-86
2022/06/04 02:51:27;;;;;;;9.87;4.10;;;17.10;99.90;;;;;;5013985;28;20201;-86
2022/06/04 02:53:56;;;;;;;8.63;4.10;;;17.10;99.90;;;;;;5013851;28;20603;-85
2022/06/04 02:56:28;;;;;;;6.70;3.00;;;17.10;99.90;;;;;;5014054;28;20248;-85
2022/06/04 02:59:00;;;;;;;6.20;3.80;;;17.00;99.90;;;;;;5013795;28;20214;-86
2022/06/04 03:01:29;;;;;;;5.20;3.33;;;17.10;99.90;;;;;;5013920;28;20665;-86
2022/06/04 03:03:56;;;;;;;15.83;4.93;;;17.00;99.90;;;;;;5014083;28;20244;-85
2022/06/04 03:06:26;;;;;;;11.00;4.87;;;16.90;99.90;;;;;;5013225;28;20214;-86
2022/06/04 03:08:54;;;;;;;11.00;4.87;;;16.80;99.90;;;;;;5017491;28;20203;-86
2022/06/04 03:11:21;;;;;;;9.47;4.40;;;16.80;99.90;;;;;;5017997;28;20276;-85
2022/06/04 03:13:48;;;;;;;13.70;4.33;;;16.80;99.90;;;;;;5017592;28;20197;-85
2022/06/04 03:16:18;;;;;;;7.67;4.00;;;16.70;99.90;;;;;;5017567;28;20192;-85
2022/06/04 03:18:45;;;;;;;7.87;4.03;;;16.60;99.90;;;;;;5017182;28;20648;-85
2022/06/04 03:21:13;;;;;;;13.40;4.47;;;16.70;99.90;;;;;;5017710;28;20193;-87
2022/06/04 03:23:41;;;;;;;15.80;4.97;;;16.60;99.90;;;;;;5017153;28;20225;-86
2022/06/04 03:26:10;;;;;;;6.57;3.43;;;16.70;99.90;;;;;;5017256;28;20286;-85
2022/06/04 03:28:37;;;;;;;8.50;4.15;;;16.70;99.90;;;;;;5016937;28;20512;-86
2022/06/04 03:31:06;;;;;;;6.90;3.67;;;16.80;99.90;;;;;;5017428;28;20630;-86
2022/06/04 03:33:34;;;;;;;7.47;3.53;;;16.70;99.90;;;;;;5017208;28;20209;-86
2022/06/04 03:36:05;;;;;;;7.93;4.10;;;16.60;99.90;;;;;;5017279;28;20233;-86
2022/06/04 03:38:32;;;;;;;9.17;4.93;;;16.60;99.90;;;;;;5016912;28;20623;-86
2022/06/04 03:40:59;;;;;;;12.80;4.63;;;16.60;99.90;;;;;;5017164;28;20207;-86
2022/06/04 03:43:26;;;;;;;10.33;4.40;;;16.60;99.90;;;;;;5016963;28;20580;-87
2022/06/04 03:45:54;;;;;;;7.00;4.03;;;16.50;99.90;;;;;;5016719;28;20200;-86
2022/06/04 03:48:22;;;;;;;9.60;3.87;;;16.70;99.90;;;;;;5016910;28;20655;-87
2022/06/04 03:50:51;;;;;;;7.03;3.40;;;16.60;99.90;;;;;;5016951;28;20196;-86
2022/06/04 03:53:20;;;;;;;7.50;3.33;;;16.60;99.90;;;;;;5017069;28;20197;-86
2022/06/04 03:55:46;;;;;;;8.50;3.57;;;16.50;99.90;;;;;;5016907;28;20634;-85
2022/06/04 03:58:13;;;;;;;4.33;2.50;;;16.60;99.90;;;;;;5016611;28;20201;-86
2022/06/04 04:00:44;;;;;;;2.97;2.10;;;16.80;99.90;;;;;;5016492;28;20658;-83
2022/06/04 04:03:15;;;;;;;3.43;2.43;;;16.80;99.90;;;;;;5016491;28;20221;-85
2022/06/04 04:05:48;;;;;;;4.97;2.83;;;16.60;99.90;;;;;;5016460;28;20578;-86
2022/06/04 04:08:19;;;;;;;7.07;3.47;;;16.60;99.90;;;;;;5016638;28;20641;-86
2022/06/04 04:10:48;;;;;;;8.20;3.30;;;16.60;99.90;;;;;;5016585;28;20205;-84
2022/06/04 04:13:17;;;;;;;8.70;3.77;;;16.70;99.90;;;;;;5016661;28;20224;-86
2022/06/04 04:15:47;;;;;;;6.40;3.40;;;16.60;99.90;;;;;;5016260;28;20202;-85
2022/06/04 04:18:15;;;;;;;10.48;4.90;;;16.60;99.90;;;;;;5015230;28;20435;-86
2022/06/04 04:20:47;;;;;;;13.60;4.37;;;16.60;99.90;;;;;;5016174;28;20202;-86
2022/06/04 04:23:21;;;;;;;6.37;3.03;;;16.50;99.90;;;;;;5016132;28;20284;-85
2022/06/04 04:25:48;;;;;;;3.77;2.97;;;16.50;99.90;;;;;;5016448;28;20189;-86
2022/06/04 04:28:17;;;;;;;4.33;2.50;;;16.40;99.90;;;;;;5016128;28;20193;-86
2022/06/04 04:30:45;;;;;;;2.60;2.13;;;16.30;99.90;;;;;;5016239;28;20255;-86
2022/06/04 04:33:12;;;;;;;5.27;3.17;;;16.20;99.90;;;;;;5016150;28;20554;-86
2022/06/04 04:35:39;;;;;;;4.43;2.90;;;16.20;99.90;;;;;;5015808;28;20323;-85
2022/06/04 04:38:06;;;;;;;5.47;3.70;;;16.10;99.90;;;;;;5016057;28;20207;-86
2022/06/04 04:40:36;;;;;;;12.97;4.43;;;16.10;99.90;;;;;;5016196;28;20211;-84
2022/06/04 04:43:03;;;;;;;6.33;3.57;;;16.10;99.90;;;;;;5016070;28;20541;-86
2022/06/04 04:45:31;;;;;;;5.97;2.93;;;16.20;99.90;;;;;;5016139;28;20214;-86
2022/06/04 04:47:58;;;;;;;3.00;2.40;;;16.00;99.90;;;;;;5015618;28;20266;-87
2022/06/04 04:50:31;;;;;;;3.70;2.53;;;16.00;99.90;;;;;;5015691;28;20265;-87
2022/06/04 04:52:58;;;;;;;4.33;2.37;;;16.10;99.90;;;;;;5016132;28;20202;-85
2022/06/04 04:55:25;;;;;;;4.00;2.70;;;16.30;99.90;;;;;;5015781;28;20210;-86
2022/06/04 04:57:53;;;;;;;4.30;2.37;;;16.20;99.90;;;;;;5018637;28;20203;-86
2022/06/04 05:00:21;;;;;;;3.20;2.80;;;16.30;99.90;;;;;;5019023;28;20203;-85
2022/06/04 05:02:48;;;;;;;2.90;1.97;;;16.20;99.90;;;;;;5024851;28;20227;-87
2022/06/04 05:05:15;;;;;;;5.83;2.63;;;16.00;99.90;;;;;;5018913;28;20232;-86
2022/06/04 05:07:45;;;;;;;2.37;2.17;;;16.00;99.90;;;;;;5016353;28;20214;-87
2022/06/04 05:10:13;;;;;;;2.40;2.10;;;16.20;99.90;;;;;;5016102;28;20208;-86
2022/06/04 05:12:43;;;;;;;3.10;2.80;;;16.00;99.90;;;;;;5015469;28;20564;-88
2022/06/04 05:15:12;;;;;;;7.23;3.50;;;16.10;99.90;;;;;;4997354;28;20297;-87
2022/06/04 05:17:42;;;;;;;6.70;3.47;;;16.20;99.90;;;;;;5015262;28;20201;-87
2022/06/04 05:20:12;;;;;;;4.00;2.97;;;16.10;99.90;;;;;;5015644;28;20192;-85
2022/06/04 05:22:39;;;;;;;4.47;3.13;;;15.80;99.90;;;;;;5015382;28;20587;-87
2022/06/04 05:25:06;;;;;;;4.80;2.90;;;15.90;99.90;;;;;;5015615;28;20222;-88
2022/06/04 05:27:33;;;;;;;5.63;2.97;;;15.80;99.90;;;;;;5015403;28;20195;-88
2022/06/04 05:30:04;;;;;;;4.40;2.63;;;15.80;99.90;;;;;;5014974;28;20200;-87
2022/06/04 05:32:35;;;;;;;3.85;2.70;;;15.80;99.90;;;;;;5014350;28;20904;-86
2022/06/04 05:35:09;;;;;;;2.97;2.67;;;15.90;99.90;;;;;;5015107;28;20691;-86
2022/06/04 05:37:37;;;;;;;2.80;2.60;;;15.90;99.90;;;;;;5014933;28;20563;-87
2022/06/04 05:40:08;;;;;;;3.63;2.70;;;16.00;99.90;;;;;;5015127;28;20283;-87
2022/06/04 05:42:35;;;;;;;7.73;3.07;;;16.00;99.90;;;;;;5015209;28;20196;-87
2022/06/04 05:45:02;;;;;;;4.80;3.33;;;15.90;99.90;;;;;;5015070;28;20311;-87
2022/06/04 05:47:37;;;;;;;3.10;2.83;;;15.90;99.90;;;;;;5015145;28;20207;-86
2022/06/04 05:50:05;;;;;;;3.20;3.00;;;15.90;99.90;;;;;;5014965;28;20196;-88
2022/06/04 05:52:35;;;;;;;3.63;3.03;;;16.00;99.90;;;;;;5015019;28;20197;-87
2022/06/04 05:55:12;;;;;;;3.87;2.83;;;16.00;99.90;;;;;;5014890;28;20194;-87
2022/06/04 05:57:39;;;;;;;6.60;3.10;;;15.90;99.90;;;;;;5014654;28;20548;-84
2022/06/04 06:00:11;;;;;;;4.00;3.10;;;15.80;99.90;;;;;;5014476;28;20277;-86
2022/06/04 06:02:40;;;;;;;4.43;3.23;;;16.00;99.90;;;;;;5014248;28;20193;-85
2022/06/04 06:05:07;;;;;;;6.83;2.97;;;16.20;99.90;;;;;;5014134;28;20216;-85
2022/06/04 06:07:34;;;;;;;3.70;3.20;;;16.20;99.90;;;;;;5014103;28;20209;-83
2022/06/04 06:10:08;;;;;;;4.63;2.57;;;16.10;99.90;;;;;;5014270;28;20192;-85
2022/06/04 06:12:36;;;;;;;3.57;3.27;;;16.10;99.90;;;;;;5013873;28;20208;-84
2022/06/04 06:15:03;;;;;;;7.23;3.20;;;16.30;99.90;;;;;;5014395;28;20215;-85
2022/06/04 06:17:31;;;;;;;3.13;2.83;;;16.50;99.90;;;;;;5013840;28;20217;-83
2022/06/04 06:19:59;;;;;;;3.20;2.90;;;16.40;99.90;;;;;;5014242;28;20563;-86
2022/06/04 06:22:26;;;;;;;3.10;2.60;;;16.40;99.90;;;;;;5014116;28;20192;-86
2022/06/04 06:24:59;;;;;;;3.80;3.37;;;16.20;99.90;;;;;;5014005;28;20233;-84
2022/06/04 06:27:26;;;;;;;3.67;3.27;;;16.30;99.90;;;;;;5013794;28;20189;-85
2022/06/04 06:29:59;;;;;;;4.00;2.90;;;16.30;99.90;;;;;;5013744;28;20204;-84
2022/06/04 06:32:26;;;;;;;5.63;3.07;;;16.30;99.90;;;;;;5014059;28;20210;-84
2022/06/04 06:34:53;;;;;;;5.10;2.90;;;16.50;99.90;;;;;;5013957;28;20226;-84
2022/06/04 06:37:23;;;;;;;4.73;3.23;;;16.60;99.90;;;;;;5013958;28;20205;-84
2022/06/04 06:39:50;;;;;;;4.57;3.50;;;16.80;99.90;;;;;;5014110;28;20198;-83
2022/06/04 06:42:19;;;;;;;5.97;3.30;;;16.60;99.90;;;;;;5014526;28;20546;-84
2022/06/04 06:44:46;;;;;;;4.67;3.30;;;16.40;99.90;;;;;;5017502;28;20269;-85
2022/06/04 06:47:12;;;;;;;4.68;3.33;;;16.40;99.90;;;;;;5017149;28;20441;-84
2022/06/04 06:49:39;;;;;;;4.53;3.50;;;16.60;99.90;;;;;;5017972;28;20216;-85
2022/06/04 06:52:08;;;;;;;7.60;3.37;;;16.70;99.90;;;;;;5017736;28;20210;-84
2022/06/04 06:54:37;;;;;;;4.17;3.17;;;16.80;99.90;;;;;;5017750;28;20203;-85
2022/06/04 06:57:08;;;;;;;5.97;2.83;;;16.80;99.90;;;;;;5017395;28;20197;-83
2022/06/04 06:59:43;;;;;;;4.70;3.37;;;16.70;99.90;;;;;;5017495;28;20214;-86
2022/06/04 07:02:11;;;;;;;4.10;3.00;;;16.80;99.90;;;;;;5018108;28;20241;-86
2022/06/04 07:04:39;;;;;;;3.47;3.17;;;17.00;99.90;;;;;;5028741;28;20286;-85
2022/06/04 07:07:07;;;;;;;8.67;3.60;;;16.90;99.90;;;;;;5035695;28;20213;-85
2022/06/04 07:09:38;;;;;;;3.83;3.50;;;16.80;99.90;;;;;;5036042;28;20280;-85
2022/06/04 07:12:06;;;;;;;4.50;3.60;;;17.20;99.90;;;;;;5035523;28;20233;-86
2022/06/04 07:14:33;;;;;;;7.03;4.27;;;17.20;99.90;;;;;;5035517;28;20216;-83
2022/06/04 07:17:03;;;;;;;4.40;3.77;;;17.40;99.90;;;;;;5035899;28;20597;-85
2022/06/04 07:19:33;;;;;;;3.70;3.30;;;17.50;99.90;;;;;;5036105;28;20633;-85
2022/06/04 07:22:02;;;;;;;6.00;3.80;;;17.40;99.90;;;;;;5036071;28;20224;-85
2022/06/04 07:24:29;;;;;;;3.80;3.40;;;17.50;99.90;;;;;;5035976;28;20226;-85
2022/06/04 07:26:58;;;;;;;5.50;3.40;;;17.30;99.90;;;;;;5036065;28;20193;-85
2022/06/04 07:29:28;;;;;;;8.47;4.63;;;17.20;99.90;;;;;;5035901;28;20217;-85
2022/06/04 07:31:55;;;;;;;6.43;4.90;;;17.20;99.90;;;;;;5035670;28;20245;-85
2022/06/04 07:34:22;;;;;;;7.77;4.13;;;17.20;99.90;;;;;;5035719;28;20657;-85
2022/06/04 07:36:50;;;;;;;5.70;4.07;;;17.30;99.90;;;;;;5035371;28;20585;-83
2022/06/04 07:39:18;;;;;;;4.53;4.13;;;17.50;99.90;;;;;;5035942;28;20589;-85
2022/06/04 07:41:47;;;;;;;4.67;4.27;;;17.80;99.90;;;;;;5035301;28;20209;-84
2022/06/04 07:44:17;;;;;;;4.60;4.20;;;18.00;99.90;;;;;;5035155;28;20214;-84
2022/06/04 07:46:45;;;;;;;8.50;5.33;;;18.00;99.90;;;;;;5032768;28;20204;-85
2022/06/04 07:49:15;;;;;;;5.77;4.43;;;17.90;99.90;;;;;;5035797;28;20207;-85
2022/06/04 07:51:44;;;;;;;4.67;4.17;;;18.30;99.90;;;;;;5035229;28;20282;-84
2022/06/04 07:54:12;;;;;;;4.27;3.77;;;18.30;99.90;;;;;;5039405;28;20214;-83
2022/06/04 07:56:41;;;;;;;6.00;4.80;;;18.40;99.90;;;;;;5055552;28;20199;-84
2022/06/04 07:59:11;;;;;;;5.87;4.60;;;18.10;99.90;;;;;;5054359;28;20191;-84
2022/06/04 08:01:39;;;;;;;6.10;5.50;;;18.00;99.90;;;;;;5034526;28;20523;-84
2022/06/04 08:04:06;;;;;;;5.23;4.70;;;18.00;99.90;;;;;;5035375;28;20199;-85
2022/06/04 08:06:33;;;;;;;4.90;4.50;;;18.00;99.90;;;;;;5035444;28;20219;-87
2022/06/04 08:09:07;;;;;;;5.17;4.53;;;17.90;99.90;;;;;;5035885;28;20203;-87
2022/06/04 08:11:36;;;;;;;6.03;4.70;;;18.20;99.90;;;;;;5035779;28;20203;-86
2022/06/04 08:14:09;;;;;;;5.77;5.13;;;18.60;99.90;;;;;;5035530;28;20282;-85
2022/06/04 08:16:40;;;;;;;5.07;4.67;;;18.80;99.90;;;;;;5035200;28;20303;-85
2022/06/04 08:19:10;;;;;;;7.83;5.53;;;18.60;99.90;;;;;;5035905;28;20216;-86
2022/06/04 08:21:41;;;;;;;10.33;5.57;;;18.90;99.90;;;;;;5035039;28;20212;-84
2022/06/04 08:24:09;;;;;;;7.20;5.43;;;18.90;99.90;;;;;;5034882;28;20553;-85
2022/06/04 08:26:38;;;;;;;8.77;6.07;;;18.80;99.90;;;;;;5035115;28;20220;-84
2022/06/04 08:29:05;;;;;;;8.63;5.47;;;18.70;99.90;;;;;;5035689;28;20631;-85
2022/06/04 08:31:33;;;;;;;6.10;5.50;;;18.50;99.90;;;;;;5035388;28;20187;-87
2022/06/04 08:34:04;;;;;;;8.90;5.53;;;18.40;99.90;;;;;;5034832;28;20295;-85
2022/06/04 08:36:31;;;;;;;6.33;5.20;;;18.40;99.90;;;;;;5035058;28;20235;-83
2022/06/04 08:38:58;;;;;;;6.90;5.93;;;18.60;99.90;;;;;;5034696;28;20303;-83
2022/06/04 08:41:44;;;;;;;9.30;5.87;;;18.80;99.90;;;;;;5034774;28;20652;-84
2022/06/04 08:44:14;;;;;;;8.07;5.83;;;18.60;99.90;;;;;;5034835;28;20202;-86
2022/06/04 08:46:49;;;;;;;8.90;6.10;;;18.70;99.90;;;;;;5035237;28;20704;-86
2022/06/04 08:49:24;;;;;;;8.20;6.30;;;18.80;99.90;;;;;;5035277;28;20204;-85
2022/06/04 08:51:51;;;;;;;6.20;5.60;;;19.00;99.90;;;;;;5033565;28;20299;-85
2022/06/04 08:59:59;;;;;;;6.63;6.13;;;19.30;99.90;;;;;;5054375;28;20323;-84
2022/06/04 09:02:32;;;;;;;6.90;6.20;;;19.70;99.90;;;;;;5053987;28;20200;-83
2022/06/04 09:05:09;;;;;;;6.97;6.10;;;19.80;99.90;;;;;;5053718;28;20585;-86
2022/06/04 09:07:39;;;;;;;10.77;6.40;;;20.00;99.90;;;;;;5054340;28;20297;-88
2022/06/04 09:10:13;;;;;;;10.73;6.47;;;20.00;99.90;;;;;;5054510;28;20214;-86
2022/06/04 09:12:45;;;;;;;8.00;6.83;;;19.70;99.90;;;;;;5054348;28;20201;-85
2022/06/04 09:15:17;;;;;;;11.60;7.80;;;19.80;99.90;;;;;;5053663;28;20844;-84
2022/06/04 09:17:47;;;;;;;8.30;7.50;;;20.10;99.90;;;;;;5054421;28;20213;-85
2022/06/04 09:20:24;;;;;;;8.40;6.30;;;20.00;99.90;;;;;;5054658;28;20257;-86
2022/06/04 09:22:56;;;;;;;9.07;6.73;;;19.90;99.90;;;;;;5054113;28;20201;-85
2022/06/04 09:25:28;;;;;;;6.97;6.23;;;20.00;99.90;;;;;;5041198;28;20705;-87
2022/06/04 09:28:03;;;;;;;10.13;7.07;;;20.10;99.90;;;;;;5033989;28;20237;-85
2022/06/04 09:30:36;;;;;;;7.70;6.90;;;20.10;99.90;;;;;;5034015;28;20206;-85
2022/06/04 09:33:18;;;;;;;9.00;7.30;;;20.10;99.90;;;;;;5033783;28;20195;-86
2022/06/04 09:35:47;;;;;;;8.67;7.10;;;20.10;99.90;;;;;;5033546;28;20629;-85
2022/06/04 09:38:24;;;;;;;8.03;7.20;;;20.00;99.90;;;;;;5033976;28;20209;-86
2022/06/04 09:40:59;;;;;;;10.53;8.00;;;19.90;99.90;;;;;;5034602;28;20235;-86
2022/06/04 09:43:26;;;;;;;8.23;7.43;;;19.80;99.90;;;;;;5034032;28;20204;-86
2022/06/04 09:45:56;;;;;;;8.70;7.80;;;19.90;99.90;;;;;;5033774;28;20688;-84
2022/06/04 09:48:26;;;;;;;11.27;7.70;;;20.00;99.90;;;;;;5034262;28;20239;-84
2022/06/04 09:50:56;;;;;;;8.60;7.70;;;20.30;99.90;;;;;;5033621;28;20198;-85
2022/06/04 09:53:25;;;;;;;10.80;8.23;;;20.40;99.90;;;;;;5033455;28;20201;-87
2022/06/04 09:55:56;;;;;;;8.10;7.30;;;20.10;99.90;;;;;;5032739;28;20203;-84
2022/06/04 09:58:29;;;;;;;10.00;8.07;;;20.20;99.90;;;;;;5034040;28;20297;-85
2022/06/04 10:00:59;;;;;;;8.60;7.73;;;20.50;99.90;;;;;;5034210;28;20205;-85
2022/06/04 10:03:30;;;;;;;8.63;7.83;;;20.50;99.90;;;;;;5034007;28;20634;-86
2022/06/04 10:06:03;;;;;;;11.23;8.43;;;20.60;99.90;;;;;;5033096;28;20243;-84
2022/06/04 10:09:54;;;;;;;12.80;9.30;;;20.50;99.90;;;;;;5034025;28;20213;-84
2022/06/04 10:11:21;;;;;;;10.30;7.63;;;20.40;99.90;;;;;;5033874;28;20203;-85
2022/06/04 10:13:50;;;;;;;9.23;8.40;;;20.50;99.90;;;;;;5033520;28;20549;-86
2022/06/04 10:16:20;;;;;;;10.10;9.10;;;20.60;99.90;;;;;;5033481;28;20201;-85
2022/06/04 10:18:58;;;;;;;10.07;9.07;;;20.70;99.90;;;;;;5033113;28;20192;-85
2022/06/04 10:21:29;;;;;;;9.80;8.80;;;20.60;99.90;;;;;;5033825;28;20209;-88
2022/06/04 10:23:58;;;;;;;10.13;9.23;;;20.50;99.90;;;;;;5033870;28;20199;-87
2022/06/04 10:26:48;;;;;;;10.47;8.87;;;20.60;99.90;;;;;;5046568;28;20314;-87
2022/06/04 10:29:43;;;;;;;10.33;9.00;;;20.80;99.90;;;;;;5047493;28;20198;-85
2022/06/04 10:32:21;;;;;;;10.10;9.07;;;21.00;99.90;;;;;;5049367;28;20202;-86
2022/06/04 10:34:55;;;;;;;14.20;9.53;;;21.20;99.90;;;;;;5048213;28;20232;-87
2022/06/04 10:37:43;;;;;;;9.90;9.00;;;21.30;99.90;;;;;;5042105;28;20567;-87
2022/06/04 10:40:39;;;;;;;10.77;9.40;;;21.40;99.90;;;;;;5049818;28;20657;-85
2022/06/04 10:43:22;;;;;;;9.83;8.80;;;21.40;99.90;;;;;;5048802;28;20206;-86
2022/06/04 10:45:55;;;;;;;10.17;9.13;;;21.70;99.90;;;;;;5053693;28;20247;-85
2022/06/04 10:48:37;;;;;;;10.33;9.43;;;21.80;99.90;;;;;;5041244;28;20218;-87
2022/06/04 10:51:27;;;;;;;12.50;9.90;;;21.80;99.90;;;;;;5043405;28;20207;-84
2022/06/04 10:54:08;;;;;;;14.07;9.07;;;22.00;99.90;;;;;;5034698;28;20214;-86
2022/06/04 10:56:42;;;;;;;10.37;9.33;;;21.80;99.90;;;;;;5033724;28;20209;-87
2022/06/04 10:59:17;;;;;;;14.70;9.93;;;21.90;99.90;;;;;;5033367;28;20189;-88
2022/06/04 11:01:49;;;;;;;17.07;10.17;;;21.80;99.90;;;;;;5033637;28;20195;-89
2022/06/04 11:04:25;;;;;;;11.50;9.40;;;22.10;99.90;;;;;;5033294;28;20194;-89
2022/06/04 11:06:58;;;;;;;10.57;9.57;;;22.40;99.90;;;;;;5033431;28;20237;-89
2022/06/04 11:09:33;;;;;;;10.70;9.63;;;22.10;99.90;;;;;;5033181;28;20210;-87
2022/06/04 11:12:05;;;;;;;13.37;9.47;;;22.10;99.90;;;;;;5035998;28;20316;-85
2022/06/04 11:14:41;;;;;;;11.53;9.23;;;22.10;99.90;;;;;;5036595;28;20212;-87
2022/06/04 11:17:17;;;;;;;10.10;9.30;;;22.30;99.90;;;;;;5033853;28;20560;-85
2022/06/04 11:19:55;;;;;;;11.00;9.90;;;22.20;99.90;;;;;;5032675;28;20435;-87
2022/06/04 11:22:28;;;;;;;10.37;9.30;;;22.20;99.90;;;;;;5033498;28;20300;-85
2022/06/04 11:25:02;;;;;;;10.63;9.33;;;22.20;99.90;;;;;;5033474;28;20221;-85
2022/06/04 11:27:34;;;;;;;11.13;10.13;;;22.20;99.90;;;;;;5015888;28;20225;-87
2022/06/04 11:30:07;;;;;;;9.57;8.43;;;22.00;99.90;;;;;;5036551;28;20195;-85
2022/06/04 11:32:42;;;;;;;12.73;9.87;;;22.30;99.90;;;;;;5036672;28;20190;-87
2022/06/04 11:35:21;;;;;;;14.07;10.57;;;22.40;99.90;;;;;;5036374;28;20258;-88
2022/06/04 11:38:21;;;;;;;10.63;9.57;;;22.20;99.90;;;;;;5036569;28;20576;-87
2022/06/04 11:40:56;;;;;;;9.90;9.10;;;22.40;99.90;;;;;;5031509;28;20268;-86
2022/06/04 11:43:36;;;;;;;9.37;8.53;;;22.50;99.90;;;;;;5037049;28;20206;-88
2022/06/04 11:46:27;;;;;;;9.57;8.63;;;22.80;99.90;;;;;;5036580;28;20220;-89
2022/06/04 11:49:05;;;;;;;11.00;10.03;;;22.90;99.90;;;;;;5036674;28;20666;-84
2022/06/04 11:51:50;;;;;;;12.53;8.90;;;22.50;99.90;;;;;;5036628;28;20223;-87
2022/06/04 11:54:29;;;;;;;10.27;9.20;;;22.50;99.90;;;;;;5036330;28;20649;-88
2022/06/04 11:57:06;;;;;;;8.43;7.83;;;22.60;99.90;;;;;;5036846;28;20210;-88
2022/06/04 11:59:47;;;;;;;13.50;8.50;;;22.80;99.90;;;;;;5036248;28;20225;-86
2022/06/04 12:02:25;;;;;;;10.07;9.10;;;23.20;99.90;;;;;;5035884;28;20202;-93
2022/06/04 12:05:03;;;;;;;11.40;10.33;;;23.30;99.90;;;;;;5035952;28;20234;-84
2022/06/04 12:07:37;;;;;;;10.73;9.63;;;23.10;99.90;;;;;;5035929;28;20739;-82
2022/06/04 12:10:17;;;;;;;12.67;10.30;;;22.80;99.90;;;;;;5035805;28;20301;-81
2022/06/04 12:12:55;;;;;;;9.70;8.87;;;22.80;99.90;;;;;;5036068;28;20293;-81
2022/06/04 12:15:27;;;;;;;9.80;8.80;;;23.00;99.90;;;;;;5035638;28;20207;-83
2022/06/04 12:17:58;;;;;;;10.30;8.43;;;23.20;99.90;;;;;;5036192;28;20195;-82
2022/06/04 12:26:24;;;;;;;11.87;10.17;;;23.60;99.90;;;;;;5038036;28;20724;-86
2022/06/04 12:28:54;;;;;;;10.47;9.47;;;23.50;99.90;;;;;;5037278;28;20195;-86
2022/06/04 12:31:34;;;;;;;9.57;7.90;;;23.70;99.90;;;;;;5035827;28;20198;-87
2022/06/04 12:34:01;;;;;;;10.40;9.30;;;24.10;99.90;;;;;;5035099;28;20243;-86
2022/06/04 12:36:32;;;;;;;10.50;8.40;;;24.10;99.90;;;;;;5034818;28;20227;-84
2022/06/04 12:39:02;;;;;;;10.23;9.20;;;24.40;99.90;;;;;;5035866;28;20250;-84
2022/06/04 12:41:46;;;;;;;11.57;9.60;;;24.40;99.90;;;;;;5034221;28;20203;-84
2022/06/04 12:44:22;;;;;;;9.57;8.77;;;24.10;99.90;;;;;;5035133;28;20635;-83
2022/06/04 12:46:51;;;;;;;10.23;9.33;;;24.10;99.90;;;;;;5034170;28;20223;-86
2022/06/04 12:49:43;;;;;;;9.93;8.80;;;24.20;99.90;;;;;;5034812;28;20195;-83
2022/06/04 12:52:32;;;;;;;15.00;12.00;;;24.10;99.90;;;;;;5037876;28;20207;-82
2022/06/04 12:55:08;;;;;;;13.77;11.80;;;23.90;99.90;;;;;;5034978;28;20207;-85
2022/06/04 12:57:51;;;;;;;15.70;11.27;;;24.20;99.90;;;;;;5034624;28;20638;-84
2022/06/04 13:00:38;;;;;;;12.70;9.43;;;24.30;99.90;;;;;;5033304;28;20899;-83
2022/06/04 13:03:40;;;;;;;11.17;9.90;;;24.80;99.90;;;;;;5034566;28;20195;-83
2022/06/04 13:06:36;;;;;;;10.23;9.23;;;24.60;99.90;;;;;;5020089;28;20227;-83
2022/06/04 13:09:16;;;;;;;10.57;9.47;;;24.80;99.90;;;;;;5034586;28;20234;-82
2022/06/04 13:11:56;;;;;;;10.70;9.60;;;24.60;99.90;;;;;;5035700;28;20226;-83
2022/06/04 13:14:36;;;;;;;11.20;9.97;;;24.60;99.90;;;;;;5034252;28;20203;-84
2022/06/04 13:17:20;;;;;;;11.53;9.50;;;24.80;99.90;;;;;;5034382;28;20203;-80
2022/06/04 13:20:19;;;;;;;9.87;9.00;;;25.10;99.90;;;;;;5034154;28;20207;-84
2022/06/04 13:22:49;;;;;;;11.47;9.80;;;25.70;99.90;;;;;;5034428;28;20218;-84
2022/06/04 13:25:22;;;;;;;10.05;9.05;;;26.10;99.90;;;;;;5034380;28;20195;-85
2022/06/04 13:27:52;;;;;;;11.55;8.85;;;26.60;99.90;;;;;;5034225;28;20229;-85
2022/06/04 13:30:22;;;;;;;11.27;9.98;;;27.20;99.90;;;;;;5034186;28;20203;-85